Time;durP1;ratioP1;P1;durP2;ratioP2;P2;SDS_P1;SDS_P2;PMS_P1;PMS_P2;Temp;Humidity;BMP_temperature;BMP_pressure;BME280_temperature;BME280_humidity;BME280_pressure;Samples;Min_cycle;Max_cycle;Signal;HPM_P1;HPM_P2
2023/12/06 00:01:35;;;;;;;79.55;36.83;;;;;;;5.05;100.00;99354.44;5073619;28;20030;-74
2023/12/06 00:04:00;;;;;;;76.65;39.28;;;;;;;5.01;100.00;99356.19;5097515;28;20020;-75
2023/12/06 00:06:26;;;;;;;85.45;40.42;;;;;;;5.12;100.00;99353.22;5111886;28;20441;-74
2023/12/06 00:08:52;;;;;;;88.72;42.35;;;;;;;5.28;100.00;99351.03;5098481;28;20121;-74
2023/12/06 00:11:19;;;;;;;77.63;37.45;;;;;;;5.31;100.00;99351.25;5091673;28;20085;-74
2023/12/06 00:13:44;;;;;;;77.00;35.33;;;;;;;5.35;100.00;99340.38;5076800;28;20020;-75
2023/12/06 00:16:10;;;;;;;79.32;38.35;;;;;;;5.50;100.00;99358.72;5110957;28;20427;-74
2023/12/06 00:18:35;;;;;;;80.05;38.83;;;;;;;5.51;100.00;99348.44;5101586;28;20055;-74
2023/12/06 00:21:01;;;;;;;84.97;39.00;;;;;;;5.21;100.00;99340.34;5107002;28;20057;-73
2023/12/06 00:23:26;;;;;;;87.38;39.50;;;;;;;5.16;100.00;99341.22;5110349;28;20023;-74
2023/12/06 00:25:51;;;;;;;90.32;39.90;;;;;;;5.40;100.00;99345.03;5091294;28;20020;-74
2023/12/06 00:28:17;;;;;;;82.47;41.75;;;;;;;5.30;100.00;99334.91;5090390;28;20020;-74
2023/12/06 00:30:43;;;;;;;80.85;40.20;;;;;;;5.40;100.00;99340.28;5091364;28;20019;-74
2023/12/06 00:33:08;;;;;;;74.40;36.58;;;;;;;5.47;100.00;99346.28;5105522;28;20023;-75
2023/12/06 00:35:34;;;;;;;80.20;40.92;;;;;;;5.34;100.00;99330.44;5092023;28;20024;-75
2023/12/06 00:37:59;;;;;;;85.30;44.35;;;;;;;5.03;100.00;99336.47;5091247;28;20508;-74
2023/12/06 00:40:25;;;;;;;91.88;44.25;;;;;;;5.11;100.00;99327.47;5091016;28;20511;-74
2023/12/06 00:42:50;;;;;;;101.63;44.75;;;;;;;5.18;100.00;99341.75;5091032;28;20089;-73
2023/12/06 00:45:15;;;;;;;85.47;43.35;;;;;;;5.26;100.00;99328.34;5106186;28;20027;-75
2023/12/06 00:47:41;;;;;;;97.72;45.75;;;;;;;5.25;100.00;99332.22;5093583;28;20096;-74
2023/12/06 00:50:07;;;;;;;92.93;46.50;;;;;;;5.24;100.00;99327.81;5110246;28;20106;-74
2023/12/06 00:52:33;;;;;;;87.13;44.75;;;;;;;5.10;100.00;99328.59;5111332;28;20110;-74
2023/12/06 00:54:58;;;;;;;97.78;44.03;;;;;;;5.23;100.00;99328.94;5097863;28;20116;-74
2023/12/06 00:57:24;;;;;;;95.43;45.33;;;;;;;5.27;100.00;99316.13;5088581;28;20027;-73
2023/12/06 00:59:49;;;;;;;102.75;51.97;;;;;;;5.38;100.00;99319.56;5111282;28;20404;-74
2023/12/06 01:02:14;;;;;;;109.85;50.78;;;;;;;5.46;100.00;99314.13;5111312;28;20015;-74
2023/12/06 01:04:40;;;;;;;103.50;51.53;;;;;;;5.50;100.00;99316.28;5101363;28;20028;-74
2023/12/06 01:07:06;;;;;;;94.88;44.13;;;;;;;5.55;100.00;99316.16;5090829;28;20086;-74
2023/12/06 01:09:31;;;;;;;97.15;43.95;;;;;;;5.55;100.00;99316.16;5090813;28;20028;-74
2023/12/06 01:12:00;;;;;;;99.53;45.80;;;;;;;5.60;100.00;99316.09;5090808;28;20020;-74
2023/12/06 01:14:25;;;;;;;86.03;44.42;;;;;;;5.61;100.00;99307.47;5097907;28;20019;-74
2023/12/06 01:16:51;;;;;;;87.97;45.38;;;;;;;5.54;100.00;99297.88;5092675;28;20518;-74
2023/12/06 01:19:16;;;;;;;87.03;43.22;;;;;;;5.55;100.00;99316.16;5096441;28;20030;-74
2023/12/06 01:21:42;;;;;;;86.65;45.25;;;;;;;5.50;100.00;99308.78;5113665;28;20031;-74
2023/12/06 01:24:08;;;;;;;89.97;44.47;;;;;;;5.37;100.00;99302.06;5100868;28;20016;-74
2023/12/06 01:26:34;;;;;;;87.47;46.15;;;;;;;5.45;100.00;99309.69;5115104;28;20377;-74
2023/12/06 01:29:03;;;;;;;91.68;45.03;;;;;;;5.52;100.00;99300.16;5096665;28;20028;-74
2023/12/06 01:31:28;;;;;;;89.68;45.83;;;;;;;5.33;100.00;99287.97;5114621;28;20019;-75
2023/12/06 01:33:54;;;;;;;84.03;42.60;;;;;;;5.43;100.00;99288.94;5109203;28;20063;-74
2023/12/06 01:36:19;;;;;;;84.30;40.80;;;;;;;5.45;100.00;99283.91;5094432;28;20023;-74
2023/12/06 01:38:45;;;;;;;79.05;40.58;;;;;;;5.42;100.00;99273.41;5098830;28;20104;-74
2023/12/06 01:41:11;;;;;;;84.13;43.38;;;;;;;5.43;100.00;99263.97;5072599;28;20126;-74
2023/12/06 01:43:40;;;;;;;80.25;40.35;;;;;;;5.48;100.00;99256.38;5076636;28;20095;-74
2023/12/06 01:46:06;;;;;;;78.50;43.88;;;;;;;5.50;100.00;99271.88;5092244;28;20094;-74
2023/12/06 01:48:32;;;;;;;80.75;40.58;;;;;;;5.40;100.00;99254.28;5094354;28;20520;-74
2023/12/06 01:50:57;;;;;;;83.25;41.22;;;;;;;5.41;100.00;99253.16;5092841;28;20019;-74
2023/12/06 01:53:23;;;;;;;86.78;44.45;;;;;;;5.46;100.00;99260.56;5092996;28;20021;-74
2023/12/06 01:55:48;;;;;;;89.75;42.50;;;;;;;5.50;100.00;99260.78;5083124;28;20042;-74
2023/12/06 01:58:14;;;;;;;94.35;45.20;;;;;;;5.44;100.00;99248.97;5090852;28;20020;-74
2023/12/06 02:00:40;;;;;;;81.30;41.60;;;;;;;5.49;100.00;99243.34;5092654;28;20065;-75
2023/12/06 02:03:06;;;;;;;83.95;41.78;;;;;;;5.44;100.00;99235.94;5094034;28;20342;-74
2023/12/06 02:05:32;;;;;;;93.00;45.42;;;;;;;5.45;100.00;99239.50;5075104;28;20029;-74
2023/12/06 02:07:59;;;;;;;79.15;41.85;;;;;;;5.39;100.00;99247.09;5073570;28;20108;-74
2023/12/06 02:10:24;;;;;;;83.20;41.65;;;;;;;5.41;100.00;99247.63;5073611;28;20021;-74
2023/12/06 02:12:49;;;;;;;80.15;42.13;;;;;;;5.36;100.00;99238.56;5073278;28;20027;-74
2023/12/06 02:15:15;;;;;;;79.65;39.17;;;;;;;5.39;100.00;99232.44;5088608;28;20028;-74
2023/12/06 02:17:42;;;;;;;84.13;39.65;;;;;;;5.38;100.00;99225.25;5081858;28;20024;-75
2023/12/06 02:20:09;;;;;;;78.15;39.33;;;;;;;5.42;100.00;99229.03;5089831;28;20021;-74
2023/12/06 02:22:34;;;;;;;77.03;36.97;;;;;;;5.41;100.00;99228.19;5093650;28;20017;-74
2023/12/06 02:25:05;;;;;;;70.07;35.85;;;;;;;5.26;100.00;99242.38;5079799;28;20028;-74
2023/12/06 02:27:30;;;;;;;;;;;;;;;5.26;100.00;99242.38;5073952;28;20107;-74
2023/12/06 02:29:56;;;;;;;74.38;35.45;;;;;;;5.26;100.00;99239.59;5084149;28;20010;-75
2023/12/06 02:32:22;;;;;;;76.82;37.00;;;;;;;5.24;100.00;99216.88;5072745;28;20028;-74
2023/12/06 02:34:50;;;;;;;78.22;37.45;;;;;;;5.36;100.00;99233.03;5082783;28;20028;-74
2023/12/06 02:37:19;;;;;;;68.22;33.53;;;;;;;5.39;100.00;99221.34;5093182;28;20229;-74
2023/12/06 02:39:46;;;;;;;71.85;35.95;;;;;;;5.37;100.00;99216.09;5091664;28;20511;-74
2023/12/06 02:42:12;;;;;;;63.22;35.13;;;;;;;5.47;100.00;99228.94;5077278;28;20123;-74
2023/12/06 02:44:37;;;;;;;70.00;37.97;;;;;;;5.36;100.00;99217.22;5052918;28;20548;-74
2023/12/06 02:47:03;;;;;;;67.47;34.83;;;;;;;5.40;100.00;99223.78;5052811;28;20082;-74
2023/12/06 02:49:28;;;;;;;71.15;34.97;;;;;;;5.42;100.00;99227.06;5052275;28;20078;-74
2023/12/06 02:51:54;;;;;;;62.85;33.63;;;;;;;5.18;100.00;99213.38;5052785;28;20040;-75
2023/12/06 02:54:19;;;;;;;69.38;35.85;;;;;;;5.08;100.00;99217.19;5053174;28;20124;-74
2023/12/06 02:56:45;;;;;;;65.85;33.30;;;;;;;5.16;100.00;99222.00;5052601;28;20025;-74
2023/12/06 02:59:10;;;;;;;75.45;35.60;;;;;;;5.17;100.00;99211.75;5052726;28;20025;-74
2023/12/06 03:01:36;;;;;;;71.82;36.20;;;;;;;5.28;100.00;99217.91;5052612;28;20033;-74
2023/12/06 03:04:01;;;;;;;73.03;35.35;;;;;;;5.38;100.00;99214.16;5052620;28;20017;-74
2023/12/06 03:06:27;;;;;;;66.28;34.45;;;;;;;5.38;100.00;99212.19;5052307;28;20025;-73
2023/12/06 03:08:52;;;;;;;84.10;37.83;;;;;;;5.37;100.00;99207.75;5051579;28;20025;-74
2023/12/06 03:11:17;;;;;;;82.65;37.58;;;;;;;5.40;100.00;99215.47;5052364;28;20468;-73
2023/12/06 03:13:43;;;;;;;67.10;33.40;;;;;;;5.28;100.00;99201.28;5052245;28;20432;-74
2023/12/06 03:16:09;;;;;;;64.53;32.92;;;;;;;5.22;100.00;99194.19;5063244;28;20021;-73
2023/12/06 03:18:34;;;;;;;74.35;35.35;;;;;;;5.32;100.00;99207.88;5052337;28;20127;-74
2023/12/06 03:21:00;;;;;;;74.03;34.95;;;;;;;5.39;100.00;99213.81;5050903;28;20036;-74
2023/12/06 03:23:25;;;;;;;65.35;33.08;;;;;;;5.34;100.00;99211.16;5052301;28;20021;-74
2023/12/06 03:25:51;;;;;;;66.18;35.70;;;;;;;5.00;100.00;99204.81;5070043;28;20074;-75
2023/12/06 03:28:17;;;;;;;83.63;37.42;;;;;;;5.23;100.00;99209.69;5070809;28;20115;-74
2023/12/06 03:30:42;;;;;;;68.53;34.50;;;;;;;5.31;100.00;99200.69;5071677;28;20031;-75
2023/12/06 03:33:08;;;;;;;77.20;33.83;;;;;;;5.33;100.00;99201.19;5071853;28;20028;-74
2023/12/06 03:35:33;;;;;;;77.03;36.72;;;;;;;5.34;100.00;99197.28;5054297;28;20024;-74
2023/12/06 03:37:59;;;;;;;67.32;33.70;;;;;;;5.38;100.00;99203.84;5050507;28;20040;-74
2023/12/06 03:40:24;;;;;;;69.90;34.30;;;;;;;5.44;100.00;99199.03;5058411;28;20105;-74
2023/12/06 03:42:50;;;;;;;71.53;34.45;;;;;;;5.38;100.00;99189.19;5102613;28;20043;-74
2023/12/06 03:45:15;;;;;;;71.57;35.28;;;;;;;5.42;100.00;99198.53;5087127;28;20030;-74
2023/12/06 03:47:41;;;;;;;71.47;35.65;;;;;;;5.42;100.00;99202.09;5112141;28;20026;-74
2023/12/06 03:50:07;;;;;;;72.25;33.65;;;;;;;5.44;100.00;99196.25;5112300;28;20023;-74
2023/12/06 03:52:33;;;;;;;75.35;37.85;;;;;;;5.48;100.00;99200.88;5093719;28;20409;-74
2023/12/06 03:54:58;;;;;;;81.30;36.92;;;;;;;5.47;100.00;99193.69;5100732;28;20063;-74
2023/12/06 03:57:24;;;;;;;71.30;35.35;;;;;;;5.45;100.00;99201.50;5091441;28;20055;-74
2023/12/06 03:59:49;;;;;;;69.68;34.42;;;;;;;5.44;100.00;99205.41;5073544;28;20028;-74
2023/12/06 04:02:15;;;;;;;73.18;34.28;;;;;;;5.42;100.00;99198.53;5073496;28;20020;-74
2023/12/06 04:04:41;;;;;;;67.53;32.85;;;;;;;5.47;100.00;99202.03;5099780;28;20019;-74
2023/12/06 04:07:06;;;;;;;70.97;34.65;;;;;;;5.38;100.00;99201.09;5104501;28;20061;-73
2023/12/06 04:09:32;;;;;;;77.10;35.22;;;;;;;5.44;100.00;99197.09;5091636;28;20024;-73
2023/12/06 04:11:57;;;;;;;80.45;36.60;;;;;;;5.41;100.00;99189.38;5090919;28;20024;-74
2023/12/06 04:14:22;;;;;;;79.07;36.65;;;;;;;5.38;100.00;99187.22;5096708;28;20019;-74
2023/12/06 04:16:49;;;;;;;74.68;34.63;;;;;;;5.39;100.00;99196.38;5111440;28;20445;-74
2023/12/06 04:19:15;;;;;;;73.53;34.83;;;;;;;5.45;100.00;99189.56;5111472;28;20043;-74
2023/12/06 04:21:41;;;;;;;72.85;34.30;;;;;;;5.45;100.00;99187.66;5111712;28;20078;-73
2023/12/06 04:24:06;;;;;;;83.35;38.33;;;;;;;5.39;100.00;99176.97;5108291;28;20020;-74
2023/12/06 04:26:32;;;;;;;82.63;41.70;;;;;;;5.45;100.00;99178.47;5073232;28;20059;-74
2023/12/06 04:28:57;;;;;;;81.30;41.33;;;;;;;5.52;100.00;99183.63;5090845;28;20027;-74
2023/12/06 04:31:23;;;;;;;78.80;38.65;;;;;;;5.41;100.00;99172.72;5096228;28;20019;-74
2023/12/06 04:33:48;;;;;;;84.95;41.60;;;;;;;5.52;100.00;99172.53;5110247;28;20031;-74
2023/12/06 04:36:13;;;;;;;79.38;38.63;;;;;;;5.44;100.00;99160.19;5111606;28;20023;-74
2023/12/06 04:38:39;;;;;;;80.57;38.60;;;;;;;5.39;100.00;99161.13;5100330;28;20480;-74
2023/12/06 04:41:04;;;;;;;72.78;34.33;;;;;;;5.46;100.00;99177.34;5072948;28;20044;-73
2023/12/06 04:43:30;;;;;;;81.05;39.78;;;;;;;5.40;100.00;99168.31;5104881;28;20081;-73
2023/12/06 04:45:55;;;;;;;77.20;38.58;;;;;;;5.29;100.00;99164.09;5106746;28;20028;-74
2023/12/06 04:48:21;;;;;;;83.05;40.05;;;;;;;5.42;100.00;99173.56;5091024;28;20081;-74
2023/12/06 04:50:47;;;;;;;80.50;36.78;;;;;;;5.43;100.00;99173.25;5091118;28;20028;-74
2023/12/06 04:53:12;;;;;;;73.30;35.53;;;;;;;5.46;100.00;99174.56;5086088;28;20457;-73
2023/12/06 04:55:38;;;;;;;70.72;36.38;;;;;;;5.36;100.00;99169.22;5115297;28;20031;-73
2023/12/06 04:58:03;;;;;;;88.03;39.08;;;;;;;5.22;100.00;99178.38;5115672;28;20371;-74
2023/12/06 05:00:30;;;;;;;77.57;37.58;;;;;;;5.12;100.00;99176.63;5115700;28;20019;-74
2023/12/06 05:02:55;;;;;;;83.63;38.20;;;;;;;4.86;100.00;99168.75;5093672;28;20068;-74
2023/12/06 05:05:21;;;;;;;74.28;37.25;;;;;;;4.96;100.00;99167.75;5107974;28;20453;-74
2023/12/06 05:07:46;;;;;;;73.15;35.28;;;;;;;5.13;100.00;99169.09;5115140;28;20031;-74
2023/12/06 05:10:12;;;;;;;69.70;34.85;;;;;;;5.20;100.00;99167.59;5115013;28;20024;-74
2023/12/06 05:12:37;;;;;;;83.05;38.85;;;;;;;5.31;100.00;99159.09;5109053;28;20020;-73
2023/12/06 05:15:04;;;;;;;82.53;38.58;;;;;;;5.37;100.00;99165.31;5094893;28;20072;-74
2023/12/06 05:17:29;;;;;;;78.05;37.40;;;;;;;5.42;100.00;99168.00;5076548;28;20024;-74
2023/12/06 05:19:55;;;;;;;89.00;40.03;;;;;;;5.38;100.00;99158.66;5094606;28;20031;-72
2023/12/06 05:22:21;;;;;;;81.80;40.00;;;;;;;5.43;100.00;99166.88;5111194;28;20027;-73
2023/12/06 05:24:46;;;;;;;80.13;41.40;;;;;;;5.48;100.00;99164.81;5095754;28;20076;-72
2023/12/06 05:27:12;;;;;;;88.80;37.45;;;;;;;5.51;100.00;99168.94;5096762;28;20026;-74
2023/12/06 05:29:37;;;;;;;78.78;36.70;;;;;;;5.44;100.00;99172.13;5092320;28;20023;-73
2023/12/06 05:32:03;;;;;;;86.53;40.72;;;;;;;5.42;100.00;99162.47;5110871;28;20110;-73
2023/12/06 05:34:29;;;;;;;90.40;39.65;;;;;;;5.48;100.00;99162.06;5113451;28;20468;-72
2023/12/06 05:36:55;;;;;;;88.85;45.33;;;;;;;5.41;100.00;99158.84;5086191;28;20032;-74
2023/12/06 05:39:21;;;;;;;81.80;37.50;;;;;;;5.36;100.00;99166.44;5107011;28;20031;-74
2023/12/06 05:41:46;;;;;;;80.82;38.90;;;;;;;5.32;100.00;99169.03;5099230;28;20040;-73
2023/12/06 05:44:12;;;;;;;84.45;40.10;;;;;;;5.35;100.00;99162.88;5096188;28;20030;-73
2023/12/06 05:46:37;;;;;;;84.05;40.15;;;;;;;5.38;100.00;99159.47;5113013;28;20030;-73
2023/12/06 05:49:02;;;;;;;90.70;38.13;;;;;;;5.30;100.00;99160.19;5108330;28;20080;-72
2023/12/06 05:51:28;;;;;;;76.00;38.53;;;;;;;5.32;100.00;99158.75;5106206;28;20034;-72
2023/12/06 05:53:53;;;;;;;75.72;37.50;;;;;;;5.45;100.00;99171.00;5088195;28;20073;-72
2023/12/06 05:56:19;;;;;;;76.25;36.22;;;;;;;5.50;100.00;99169.25;5104231;28;20024;-73
2023/12/06 05:58:44;;;;;;;85.53;40.35;;;;;;;5.46;100.00;99164.31;5085174;28;20027;-71
2023/12/06 06:01:10;;;;;;;74.75;39.17;;;;;;;5.26;100.00;99157.22;5114284;28;20077;-74
2023/12/06 06:03:35;;;;;;;83.05;38.58;;;;;;;5.33;100.00;99154.03;5113926;28;20455;-71
2023/12/06 06:06:08;;;;;;;99.85;48.58;;;;;;;5.41;100.00;99167.19;5114451;28;20051;-73
2023/12/06 06:08:35;;;;;;;95.45;50.08;;;;;;;5.43;100.00;99164.94;5105056;28;20031;-73
2023/12/06 06:11:01;;;;;;;87.60;40.05;;;;;;;5.42;100.00;99165.25;5078510;28;20031;-71
2023/12/06 06:13:29;;;;;;;72.25;37.83;;;;;;;5.46;100.00;99164.31;5113964;28;20276;-71
2023/12/06 06:15:55;;;;;;;78.45;38.28;;;;;;;5.45;100.00;99173.78;5114082;28;20518;-72
2023/12/06 06:18:20;;;;;;;72.70;37.22;;;;;;;5.45;100.00;99170.16;5093948;28;20051;-71
2023/12/06 06:20:46;;;;;;;84.18;38.60;;;;;;;5.51;100.00;99176.44;5093705;28;20027;-71
2023/12/06 06:23:11;;;;;;;76.22;38.72;;;;;;;5.52;100.00;99167.81;5102287;28;20511;-72
2023/12/06 06:25:37;;;;;;;74.50;36.47;;;;;;;5.49;100.00;99162.88;5103982;28;20024;-72
2023/12/06 06:28:02;;;;;;;74.93;40.72;;;;;;;5.53;100.00;99168.63;5109338;28;20068;-71
2023/12/06 06:30:28;;;;;;;85.75;41.15;;;;;;;5.47;100.00;99165.97;5107091;28;20113;-72
2023/12/06 06:32:54;;;;;;;104.15;44.33;;;;;;;5.44;100.00;99172.13;5100176;28;20427;-72
2023/12/06 06:35:20;;;;;;;119.28;57.60;;;;;;;5.45;100.00;99167.38;5095480;28;20094;-72
2023/12/06 06:37:46;;;;;;;85.85;44.25;;;;;;;5.42;100.00;99168.00;5103417;28;20407;-71
2023/12/06 06:40:11;;;;;;;90.15;43.53;;;;;;;5.52;100.00;99172.53;5108450;28;20031;-71
2023/12/06 06:42:37;;;;;;;86.82;40.30;;;;;;;5.50;100.00;99174.78;5100906;28;20039;-74
2023/12/06 06:45:03;;;;;;;88.97;45.38;;;;;;;5.54;100.00;99175.81;5094507;28;20020;-74
2023/12/06 06:47:29;;;;;;;74.28;36.38;;;;;;;5.53;100.00;99168.63;5106100;28;20404;-75
2023/12/06 06:49:54;;;;;;;111.55;53.25;;;;;;;5.58;100.00;99174.06;5103357;28;20034;-74
2023/12/06 06:52:20;;;;;;;84.25;41.30;;;;;;;5.50;100.00;99163.69;5088112;28;20484;-71
2023/12/06 06:54:45;;;;;;;82.65;40.20;;;;;;;5.55;100.00;99181.06;5091183;28;20032;-73
2023/12/06 06:57:11;;;;;;;97.05;51.65;;;;;;;5.61;100.00;99173.44;5103452;28;20404;-72
2023/12/06 06:59:36;;;;;;;104.78;52.80;;;;;;;5.60;100.00;99164.28;5095051;28;20422;-73
2023/12/06 07:02:02;;;;;;;86.70;43.97;;;;;;;5.56;100.00;99168.03;5088470;28;20403;-75
2023/12/06 07:04:28;;;;;;;80.13;45.10;;;;;;;5.59;100.00;99170.16;5105429;28;20019;-70
2023/12/06 07:06:53;;;;;;;97.97;50.45;;;;;;;5.54;100.00;99171.09;5090084;28;20035;-74
2023/12/06 07:09:19;;;;;;;224.13;118.35;;;;;;;5.51;100.00;99165.34;5098410;28;20527;-74
2023/12/06 07:11:45;;;;;;;293.10;179.80;;;;;;;5.38;100.00;99167.81;5092790;28;20116;-72
2023/12/06 07:14:11;;;;;;;106.07;54.55;;;;;;;5.38;100.00;99172.53;5085055;28;20027;-74
2023/12/06 07:16:36;;;;;;;136.90;81.13;;;;;;;5.41;100.00;99169.16;5075009;28;20092;-74
2023/12/06 07:19:02;;;;;;;107.28;62.92;;;;;;;5.32;100.00;99161.53;5081565;28;20028;-74
2023/12/06 07:21:27;;;;;;;98.10;47.42;;;;;;;5.37;100.00;99171.72;5102959;28;20416;-75
2023/12/06 07:23:53;;;;;;;104.68;46.03;;;;;;;5.46;100.00;99169.03;5091550;28;20024;-72
2023/12/06 07:26:18;;;;;;;96.63;45.22;;;;;;;5.55;100.00;99166.34;5105781;28;20028;-74
2023/12/06 07:28:44;;;;;;;132.27;63.20;;;;;;;5.64;100.00;99175.59;5107682;28;20042;-73
2023/12/06 07:31:09;;;;;;;117.07;50.90;;;;;;;5.55;100.00;99178.28;5088195;28;20070;-71
2023/12/06 07:33:35;;;;;;;94.40;42.63;;;;;;;5.33;100.00;99177.03;5108917;28;20047;-72
2023/12/06 07:36:01;;;;;;;110.80;49.83;;;;;;;5.23;100.00;99184.75;5109855;28;20543;-72
2023/12/06 07:38:28;;;;;;;115.38;50.92;;;;;;;5.41;100.00;99174.69;5098751;28;20252;-73
2023/12/06 07:40:53;;;;;;;112.78;50.92;;;;;;;5.43;100.00;99181.59;5095896;28;20027;-73
2023/12/06 07:43:19;;;;;;;149.23;55.17;;;;;;;5.51;100.00;99190.31;5072856;28;20012;-74
2023/12/06 07:45:45;;;;;;;107.57;47.25;;;;;;;5.56;100.00;99182.69;5090892;28;20400;-73
2023/12/06 07:48:10;;;;;;;106.68;47.60;;;;;;;5.66;100.00;99189.19;5091016;28;20709;-73
2023/12/06 07:50:35;;;;;;;116.63;46.78;;;;;;;5.74;100.00;99197.59;5089116;28;20419;-73
2023/12/06 07:53:01;;;;;;;110.07;51.08;;;;;;;5.68;100.00;99198.84;5091395;28;20455;-74
2023/12/06 07:55:27;;;;;;;116.97;54.05;;;;;;;5.50;100.00;99189.50;5109938;28;20023;-73
2023/12/06 07:57:53;;;;;;;122.30;55.15;;;;;;;5.52;100.00;99197.50;5077399;28;20016;-73
2023/12/06 08:00:19;;;;;;;113.68;54.25;;;;;;;5.42;100.00;99201.28;5090788;28;20345;-73
2023/12/06 08:02:45;;;;;;;105.55;48.65;;;;;;;5.32;100.00;99196.78;5095265;28;20027;-73
2023/12/06 08:05:11;;;;;;;109.05;54.58;;;;;;;5.19;100.00;99190.91;5094877;28;20024;-72
2023/12/06 08:07:38;;;;;;;107.30;49.47;;;;;;;5.25;100.00;99196.34;5092652;28;20024;-73
2023/12/06 08:10:13;;;;;;;99.18;47.03;;;;;;;5.15;100.00;99198.16;5100169;28;20099;-72
2023/12/06 08:12:39;;;;;;;110.28;53.58;;;;;;;5.18;100.00;99188.44;5090319;28;20497;-73
2023/12/06 08:15:06;;;;;;;116.00;54.10;;;;;;;5.25;100.00;99188.03;5095606;28;20088;-73
2023/12/06 08:17:31;;;;;;;130.30;73.55;;;;;;;5.29;100.00;99191.81;5090605;28;20061;-73
2023/12/06 08:19:57;;;;;;;121.03;58.40;;;;;;;5.45;100.00;99190.41;5077948;28;20511;-73
2023/12/06 08:22:22;;;;;;;113.75;56.72;;;;;;;5.56;100.00;99190.22;5089346;28;20024;-73
2023/12/06 08:24:48;;;;;;;133.00;62.25;;;;;;;5.57;100.00;99184.34;5073136;28;20031;-73
2023/12/06 08:27:14;;;;;;;122.93;63.53;;;;;;;5.67;100.00;99183.31;5095064;28;20042;-73
2023/12/06 08:29:40;;;;;;;129.45;65.03;;;;;;;5.26;100.00;99186.91;5105460;28;20403;-73
2023/12/06 08:32:06;;;;;;;133.52;68.05;;;;;;;5.34;100.00;99167.59;5108480;28;20034;-70
2023/12/06 08:34:31;;;;;;;131.73;60.35;;;;;;;5.54;100.00;99184.13;5109285;28;20403;-72
2023/12/06 08:36:56;;;;;;;143.88;72.15;;;;;;;5.49;100.00;99179.53;5108733;28;20023;-72
2023/12/06 08:39:22;;;;;;;140.43;69.70;;;;;;;5.68;100.00;99173.03;5084629;28;20420;-74
2023/12/06 08:41:47;;;;;;;133.15;66.93;;;;;;;5.80;100.00;99178.06;5100651;28;20047;-73
2023/12/06 08:44:13;;;;;;;141.30;71.00;;;;;;;5.88;100.00;99171.78;5090111;28;20024;-73
2023/12/06 08:46:38;;;;;;;140.48;74.50;;;;;;;5.55;100.00;99172.72;5090404;28;20020;-74
2023/12/06 08:49:04;;;;;;;157.50;75.32;;;;;;;5.59;100.00;99167.41;5071717;28;20028;-74
2023/12/06 08:51:29;;;;;;;175.30;94.07;;;;;;;5.25;100.00;99174.16;5089981;28;20030;-73
2023/12/06 08:53:55;;;;;;;153.13;75.72;;;;;;;5.21;100.00;99173.94;5094089;28;20020;-72
2023/12/06 08:56:20;;;;;;;161.57;79.75;;;;;;;5.09;100.00;99166.13;5071725;28;20016;-74
2023/12/06 08:58:45;;;;;;;175.65;83.53;;;;;;;5.32;100.00;99171.81;5104448;28;20466;-74
2023/12/06 09:01:11;;;;;;;154.35;75.35;;;;;;;5.42;100.00;99168.00;5099005;28;20496;-74
2023/12/06 09:03:36;;;;;;;147.13;77.10;;;;;;;5.31;100.00;99161.84;5096829;28;20406;-74
2023/12/06 09:06:02;;;;;;;203.18;94.03;;;;;;;5.44;100.00;99166.59;5101355;28;20027;-75
2023/12/06 09:08:28;;;;;;;211.02;103.43;;;;;;;5.54;100.00;99159.16;5074977;28;20077;-74
2023/12/06 09:10:53;;;;;;;126.32;55.25;;;;;;;4.84;100.00;99150.78;5091958;28;20031;-74
2023/12/06 09:13:19;;;;;;;135.80;65.53;;;;;;;4.92;100.00;99150.09;5080989;28;20028;-75
2023/12/06 09:15:45;;;;;;;127.03;62.75;;;;;;;4.66;100.00;99158.88;5098073;28;20024;-74
2023/12/06 09:18:10;;;;;;;172.52;79.93;;;;;;;4.47;100.00;99145.06;5078077;28;20024;-73
2023/12/06 09:20:36;;;;;;;182.80;81.50;;;;;;;4.62;100.00;99146.72;5092252;28;20094;-73
2023/12/06 09:23:01;;;;;;;551.13;267.45;;;;;;;4.93;100.00;99148.97;5098811;28;20020;-73
2023/12/06 09:25:27;;;;;;;287.52;132.15;;;;;;;5.10;100.00;99128.13;5093551;28;20411;-73
2023/12/06 09:27:52;;;;;;;179.82;78.97;;;;;;;5.36;100.00;99136.78;5094773;28;20047;-74
2023/12/06 09:30:18;;;;;;;144.13;70.82;;;;;;;5.42;100.00;99145.81;5094111;28;20502;-73
2023/12/06 09:32:45;;;;;;;158.07;69.60;;;;;;;5.52;100.00;99123.41;5100304;28;20040;-74
2023/12/06 09:35:10;;;;;;;149.80;67.93;;;;;;;5.67;100.00;99127.84;5088322;28;20102;-74
2023/12/06 09:37:36;;;;;;;360.80;152.95;;;;;;;5.69;100.00;99122.78;5080885;28;20106;-74
2023/12/06 09:40:02;;;;;;;400.80;187.35;;;;;;;5.86;100.00;99121.31;5077040;28;20034;-75
2023/12/06 09:42:29;;;;;;;162.60;75.13;;;;;;;5.81;100.00;99118.66;5080393;28;20042;-74
2023/12/06 09:44:57;;;;;;;118.13;59.10;;;;;;;5.59;100.00;99126.59;5107948;28;20038;-74
2023/12/06 09:47:24;;;;;;;219.07;96.95;;;;;;;5.50;100.00;99122.06;5081287;28;20403;-74
2023/12/06 09:49:49;;;;;;;420.23;182.55;;;;;;;5.55;100.00;99108.09;5108008;28;20027;-73
2023/12/06 09:52:22;;;;;;;452.80;211.10;;;;;;;5.80;100.00;99105.91;5101054;28;20024;-74
2023/12/06 09:54:49;;;;;;;156.63;72.25;;;;;;;5.41;100.00;99097.81;5083667;28;20028;-73
2023/12/06 09:57:15;;;;;;;140.10;62.00;;;;;;;5.19;100.00;99088.31;5082477;28;20018;-74
2023/12/06 09:59:41;;;;;;;207.48;92.32;;;;;;;5.44;100.00;99099.16;5101114;28;20032;-74
2023/12/06 10:02:07;;;;;;;298.73;127.80;;;;;;;5.46;100.00;99086.63;5077467;28;20012;-74
2023/12/06 10:04:34;;;;;;;131.75;58.25;;;;;;;5.10;100.00;99092.94;5099495;28;20073;-74
2023/12/06 10:07:03;;;;;;;120.10;53.80;;;;;;;4.83;100.00;99083.47;5103477;28;20035;-74
2023/12/06 10:09:28;;;;;;;113.10;46.28;;;;;;;4.52;100.00;99080.41;5102610;28;20024;-74
2023/12/06 10:12:08;;;;;;;122.53;50.17;;;;;;;4.62;100.00;99080.22;5081859;28;20028;-74
2023/12/06 10:14:33;;;;;;;116.60;52.05;;;;;;;4.72;100.00;99074.50;5109011;28;20015;-74
2023/12/06 10:16:59;;;;;;;126.82;51.65;;;;;;;4.48;100.00;99091.31;5112404;27;20421;-74
2023/12/06 10:19:24;;;;;;;133.30;55.63;;;;;;;4.57;100.00;99075.59;5095132;28;20116;-70
2023/12/06 10:21:51;;;;;;;141.77;62.63;;;;;;;4.70;100.00;99076.75;5086614;28;20031;-73
2023/12/06 10:24:16;;;;;;;162.13;65.38;;;;;;;4.73;100.00;99076.16;5079224;28;20023;-73
2023/12/06 10:26:43;;;;;;;112.28;48.67;;;;;;;4.79;100.00;99063.03;5095176;28;20054;-72
2023/12/06 10:29:09;;;;;;;130.65;52.45;;;;;;;4.73;100.00;99064.25;5099892;28;20491;-76
2023/12/06 10:31:40;;;;;;;206.60;73.85;;;;;;;4.81;100.00;99046.09;5080228;28;20101;-73
2023/12/06 10:34:06;;;;;;;130.73;51.83;;;;;;;4.89;100.00;99051.75;5079696;28;20046;-72
2023/12/06 10:36:32;;;;;;;148.55;61.00;;;;;;;4.53;100.00;99046.06;5086808;28;20526;-73
2023/12/06 10:38:59;;;;;;;195.82;85.13;;;;;;;4.70;100.00;99059.31;5098166;28;20059;-72
2023/12/06 10:41:26;;;;;;;155.32;71.88;;;;;;;4.64;100.00;99050.25;5100572;28;20573;-72
2023/12/06 10:43:55;;;;;;;512.30;196.30;;;;;;;4.86;100.00;99045.97;5076603;28;20037;-73
2023/12/06 10:46:21;;;;;;;840.42;349.50;;;;;;;5.12;100.00;99046.31;5095711;28;20024;-74
2023/12/06 10:48:48;;;;;;;363.70;177.57;;;;;;;5.00;100.00;99034.91;5085065;28;20043;-74
2023/12/06 10:51:15;;;;;;;184.75;95.00;;;;;;;5.10;100.00;99048.56;5099983;28;20504;-76
2023/12/06 10:53:42;;;;;;;172.82;70.60;;;;;;;5.08;100.00;99039.75;5109529;28;20030;-75
2023/12/06 10:56:09;;;;;;;134.15;62.88;;;;;;;4.84;100.00;99032.47;5101627;28;20466;-77
2023/12/06 10:58:35;;;;;;;85.53;42.33;;;;;;;4.78;100.00;99034.50;5085316;28;20027;-78
2023/12/06 11:01:02;;;;;;;81.00;37.10;;;;;;;4.88;100.00;99033.47;5087929;28;20122;-75
2023/12/06 11:03:27;;;;;;;87.72;43.13;;;;;;;5.10;100.00;99031.09;5103567;28;20802;-74
2023/12/06 11:05:58;;;;;;;124.82;63.22;;;;;;;5.02;100.00;99035.41;5103607;28;20096;-74
2023/12/06 11:08:58;;;;;;;111.47;64.97;;;;;;;4.80;100.00;99036.16;5105760;27;20842;-75